sensor_id;sensor_type;location;lat;lon;timestamp;P1;durP1;ratioP1;P2;durP2;ratioP2
47922;SDS011;33688;44.354;9.228;2023-10-19T00:00:41;2.75;;;2.50;;
47922;SDS011;33688;44.354;9.228;2023-10-19T00:03:11;3.65;;;2.83;;
47922;SDS011;33688;44.354;9.228;2023-10-19T00:05:37;2.45;;;2.20;;
47922;SDS011;33688;44.354;9.228;2023-10-19T00:08:05;3.22;;;2.33;;
47922;SDS011;33688;44.354;9.228;2023-10-19T00:10:42;2.60;;;1.83;;
47922;SDS011;33688;44.354;9.228;2023-10-19T00:13:13;3.00;;;2.70;;
47922;SDS011;33688;44.354;9.228;2023-10-19T00:15:41;2.83;;;2.38;;
47922;SDS011;33688;44.354;9.228;2023-10-19T00:18:17;2.30;;;2.10;;
47922;SDS011;33688;44.354;9.228;2023-10-19T00:20:49;3.13;;;2.28;;
47922;SDS011;33688;44.354;9.228;2023-10-19T00:23:22;2.65;;;2.15;;
47922;SDS011;33688;44.354;9.228;2023-10-19T00:26:00;4.10;;;2.53;;
47922;SDS011;33688;44.354;9.228;2023-10-19T00:28:34;2.88;;;2.03;;
47922;SDS011;33688;44.354;9.228;2023-10-19T00:31:01;3.95;;;2.40;;
47922;SDS011;33688;44.354;9.228;2023-10-19T00:33:34;2.95;;;2.13;;
47922;SDS011;33688;44.354;9.228;2023-10-19T00:36:04;2.80;;;2.30;;
47922;SDS011;33688;44.354;9.228;2023-10-19T00:38:35;4.20;;;2.63;;
47922;SDS011;33688;44.354;9.228;2023-10-19T00:41:03;2.53;;;2.30;;
47922;SDS011;33688;44.354;9.228;2023-10-19T00:43:37;2.20;;;1.95;;
47922;SDS011;33688;44.354;9.228;2023-10-19T00:46:11;3.63;;;2.33;;
47922;SDS011;33688;44.354;9.228;2023-10-19T00:48:45;2.88;;;2.53;;
47922;SDS011;33688;44.354;9.228;2023-10-19T00:51:27;2.20;;;1.90;;
47922;SDS011;33688;44.354;9.228;2023-10-19T00:53:56;2.20;;;2.00;;
47922;SDS011;33688;44.354;9.228;2023-10-19T00:56:35;4.07;;;2.40;;
47922;SDS011;33688;44.354;9.228;2023-10-19T00:59:01;3.60;;;2.33;;
47922;SDS011;33688;44.354;9.228;2023-10-19T01:01:44;2.70;;;2.42;;
47922;SDS011;33688;44.354;9.228;2023-10-19T01:04:14;2.72;;;1.95;;
47922;SDS011;33688;44.354;9.228;2023-10-19T01:06:47;2.55;;;2.33;;
47922;SDS011;33688;44.354;9.228;2023-10-19T01:09:27;3.33;;;2.45;;
47922;SDS011;33688;44.354;9.228;2023-10-19T01:11:53;1.88;;;1.77;;
47922;SDS011;33688;44.354;9.228;2023-10-19T01:14:22;2.63;;;2.13;;
47922;SDS011;33688;44.354;9.228;2023-10-19T01:16:53;2.60;;;1.95;;
47922;SDS011;33688;44.354;9.228;2023-10-19T01:19:22;2.95;;;2.50;;
47922;SDS011;33688;44.354;9.228;2023-10-19T01:21:49;2.22;;;2.00;;
47922;SDS011;33688;44.354;9.228;2023-10-19T01:24:24;2.60;;;2.35;;
47922;SDS011;33688;44.354;9.228;2023-10-19T01:27:07;3.00;;;2.15;;
47922;SDS011;33688;44.354;9.228;2023-10-19T01:29:36;2.95;;;2.35;;
47922;SDS011;33688;44.354;9.228;2023-10-19T01:32:06;2.47;;;1.95;;
47922;SDS011;33688;44.354;9.228;2023-10-19T01:34:37;3.47;;;2.23;;
47922;SDS011;33688;44.354;9.228;2023-10-19T01:37:03;2.70;;;2.50;;
47922;SDS011;33688;44.354;9.228;2023-10-19T01:39:33;3.20;;;2.40;;
47922;SDS011;33688;44.354;9.228;2023-10-19T01:42:05;3.35;;;2.20;;
47922;SDS011;33688;44.354;9.228;2023-10-19T01:44:33;2.55;;;2.10;;
47922;SDS011;33688;44.354;9.228;2023-10-19T01:47:02;2.30;;;2.05;;
47922;SDS011;33688;44.354;9.228;2023-10-19T01:49:31;2.17;;;1.95;;
47922;SDS011;33688;44.354;9.228;2023-10-19T01:51:56;3.83;;;2.50;;
47922;SDS011;33688;44.354;9.228;2023-10-19T01:54:22;2.10;;;1.90;;
47922;SDS011;33688;44.354;9.228;2023-10-19T01:56:53;2.58;;;1.98;;
47922;SDS011;33688;44.354;9.228;2023-10-19T01:59:25;2.35;;;2.15;;
47922;SDS011;33688;44.354;9.228;2023-10-19T02:01:54;2.72;;;2.25;;
47922;SDS011;33688;44.354;9.228;2023-10-19T02:04:22;3.17;;;1.77;;
47922;SDS011;33688;44.354;9.228;2023-10-19T02:06:49;2.55;;;2.20;;
47922;SDS011;33688;44.354;9.228;2023-10-19T02:09:17;2.65;;;2.13;;
47922;SDS011;33688;44.354;9.228;2023-10-19T02:11:53;2.92;;;2.10;;
47922;SDS011;33688;44.354;9.228;2023-10-19T02:14:25;2.38;;;2.17;;
47922;SDS011;33688;44.354;9.228;2023-10-19T02:16:55;2.95;;;2.42;;
47922;SDS011;33688;44.354;9.228;2023-10-19T02:19:24;2.70;;;2.05;;
47922;SDS011;33688;44.354;9.228;2023-10-19T02:21:53;2.60;;;1.92;;
47922;SDS011;33688;44.354;9.228;2023-10-19T02:24:22;2.67;;;2.40;;
47922;SDS011;33688;44.354;9.228;2023-10-19T02:26:49;3.15;;;2.17;;
47922;SDS011;33688;44.354;9.228;2023-10-19T02:29:18;2.38;;;2.05;;
47922;SDS011;33688;44.354;9.228;2023-10-19T02:31:55;2.55;;;2.00;;
47922;SDS011;33688;44.354;9.228;2023-10-19T02:34:21;3.88;;;2.70;;
47922;SDS011;33688;44.354;9.228;2023-10-19T02:36:48;2.67;;;2.20;;
47922;SDS011;33688;44.354;9.228;2023-10-19T02:39:14;2.28;;;1.83;;
47922;SDS011;33688;44.354;9.228;2023-10-19T02:41:43;1.80;;;1.60;;
47922;SDS011;33688;44.354;9.228;2023-10-19T02:44:13;2.30;;;1.95;;
47922;SDS011;33688;44.354;9.228;2023-10-19T02:46:41;2.47;;;1.90;;
47922;SDS011;33688;44.354;9.228;2023-10-19T02:49:08;2.45;;;1.95;;
47922;SDS011;33688;44.354;9.228;2023-10-19T02:51:43;2.60;;;2.10;;
47922;SDS011;33688;44.354;9.228;2023-10-19T02:54:14;2.15;;;1.80;;
47922;SDS011;33688;44.354;9.228;2023-10-19T02:56:45;2.40;;;2.00;;
47922;SDS011;33688;44.354;9.228;2023-10-19T02:59:20;2.13;;;1.88;;
47922;SDS011;33688;44.354;9.228;2023-10-19T03:01:48;2.00;;;1.80;;
47922;SDS011;33688;44.354;9.228;2023-10-19T03:04:17;2.13;;;1.58;;
47922;SDS011;33688;44.354;9.228;2023-10-19T03:06:43;2.17;;;1.75;;
47922;SDS011;33688;44.354;9.228;2023-10-19T03:09:09;2.00;;;1.70;;
47922;SDS011;33688;44.354;9.228;2023-10-19T03:11:47;2.45;;;1.92;;
47922;SDS011;33688;44.354;9.228;2023-10-19T03:14:18;2.78;;;2.00;;
47922;SDS011;33688;44.354;9.228;2023-10-19T03:16:44;2.20;;;2.00;;
47922;SDS011;33688;44.354;9.228;2023-10-19T03:19:11;3.33;;;1.75;;
47922;SDS011;33688;44.354;9.228;2023-10-19T03:21:39;2.20;;;2.00;;
47922;SDS011;33688;44.354;9.228;2023-10-19T03:24:31;2.08;;;1.65;;
47922;SDS011;33688;44.354;9.228;2023-10-19T03:27:15;2.10;;;1.90;;
47922;SDS011;33688;44.354;9.228;2023-10-19T03:29:47;1.73;;;1.63;;
47922;SDS011;33688;44.354;9.228;2023-10-19T03:32:25;2.85;;;2.15;;
47922;SDS011;33688;44.354;9.228;2023-10-19T03:37:25;2.95;;;1.88;;
47922;SDS011;33688;44.354;9.228;2023-10-19T03:39:56;1.85;;;1.75;;
47922;SDS011;33688;44.354;9.228;2023-10-19T03:42:22;1.95;;;1.65;;
47922;SDS011;33688;44.354;9.228;2023-10-19T03:44:51;2.83;;;1.65;;
47922;SDS011;33688;44.354;9.228;2023-10-19T03:47:20;2.00;;;1.63;;
47922;SDS011;33688;44.354;9.228;2023-10-19T03:49:50;1.75;;;1.52;;
47922;SDS011;33688;44.354;9.228;2023-10-19T03:52:16;1.85;;;1.58;;
47922;SDS011;33688;44.354;9.228;2023-10-19T03:54:42;1.60;;;1.50;;
47922;SDS011;33688;44.354;9.228;2023-10-19T03:57:10;2.78;;;1.83;;
47922;SDS011;33688;44.354;9.228;2023-10-19T03:59:41;1.67;;;1.52;;
47922;SDS011;33688;44.354;9.228;2023-10-19T04:02:07;2.28;;;1.80;;
47922;SDS011;33688;44.354;9.228;2023-10-19T04:04:42;2.53;;;2.00;;
47922;SDS011;33688;44.354;9.228;2023-10-19T04:07:17;2.42;;;1.73;;
47922;SDS011;33688;44.354;9.228;2023-10-19T04:09:48;2.65;;;1.40;;
47922;SDS011;33688;44.354;9.228;2023-10-19T04:12:36;2.00;;;1.75;;
47922;SDS011;33688;44.354;9.228;2023-10-19T04:15:08;2.00;;;1.77;;
47922;SDS011;33688;44.354;9.228;2023-10-19T04:17:42;1.75;;;1.60;;
47922;SDS011;33688;44.354;9.228;2023-10-19T04:20:12;1.70;;;1.60;;
47922;SDS011;33688;44.354;9.228;2023-10-19T04:22:43;1.52;;;1.17;;
47922;SDS011;33688;44.354;9.228;2023-10-19T04:25:10;4.03;;;1.75;;
47922;SDS011;33688;44.354;9.228;2023-10-19T04:27:38;2.28;;;1.75;;
47922;SDS011;33688;44.354;9.228;2023-10-19T04:30:07;1.25;;;1.13;;
47922;SDS011;33688;44.354;9.228;2023-10-19T04:32:47;1.95;;;1.60;;
47922;SDS011;33688;44.354;9.228;2023-10-19T04:35:18;2.05;;;1.85;;
47922;SDS011;33688;44.354;9.228;2023-10-19T04:37:51;2.05;;;1.40;;
47922;SDS011;33688;44.354;9.228;2023-10-19T04:40:18;2.15;;;1.40;;
47922;SDS011;33688;44.354;9.228;2023-10-19T04:42:46;2.28;;;1.92;;
47922;SDS011;33688;44.354;9.228;2023-10-19T04:45:14;1.73;;;1.60;;
47922;SDS011;33688;44.354;9.228;2023-10-19T04:47:40;1.70;;;1.45;;
47922;SDS011;33688;44.354;9.228;2023-10-19T04:50:07;2.30;;;1.60;;
47922;SDS011;33688;44.354;9.228;2023-10-19T04:52:36;1.77;;;1.50;;
47922;SDS011;33688;44.354;9.228;2023-10-19T04:55:03;1.67;;;1.50;;
47922;SDS011;33688;44.354;9.228;2023-10-19T04:57:29;2.55;;;1.70;;
47922;SDS011;33688;44.354;9.228;2023-10-19T04:59:55;1.52;;;1.33;;
47922;SDS011;33688;44.354;9.228;2023-10-19T05:02:22;1.98;;;1.80;;
47922;SDS011;33688;44.354;9.228;2023-10-19T05:04:48;1.42;;;1.33;;
47922;SDS011;33688;44.354;9.228;2023-10-19T05:07:14;2.00;;;1.75;;
47922;SDS011;33688;44.354;9.228;2023-10-19T05:09:44;1.58;;;1.38;;
47922;SDS011;33688;44.354;9.228;2023-10-19T05:12:12;2.67;;;1.83;;
47922;SDS011;33688;44.354;9.228;2023-10-19T05:14:40;1.70;;;1.60;;
47922;SDS011;33688;44.354;9.228;2023-10-19T05:17:07;2.30;;;1.70;;
47922;SDS011;33688;44.354;9.228;2023-10-19T05:19:34;1.73;;;1.63;;
47922;SDS011;33688;44.354;9.228;2023-10-19T05:22:04;1.95;;;1.38;;
47922;SDS011;33688;44.354;9.228;2023-10-19T05:24:33;2.65;;;1.23;;
47922;SDS011;33688;44.354;9.228;2023-10-19T05:26:58;1.30;;;1.08;;
47922;SDS011;33688;44.354;9.228;2023-10-19T05:29:24;3.05;;;1.88;;
47922;SDS011;33688;44.354;9.228;2023-10-19T05:31:54;1.75;;;1.48;;
47922;SDS011;33688;44.354;9.228;2023-10-19T05:34:20;2.25;;;1.95;;
47922;SDS011;33688;44.354;9.228;2023-10-19T05:36:46;2.22;;;1.58;;
47922;SDS011;33688;44.354;9.228;2023-10-19T05:39:17;1.73;;;1.52;;
47922;SDS011;33688;44.354;9.228;2023-10-19T05:41:43;2.00;;;1.70;;
47922;SDS011;33688;44.354;9.228;2023-10-19T05:44:09;3.10;;;2.08;;
47922;SDS011;33688;44.354;9.228;2023-10-19T05:46:36;1.58;;;1.40;;
47922;SDS011;33688;44.354;9.228;2023-10-19T05:49:03;1.70;;;1.60;;
47922;SDS011;33688;44.354;9.228;2023-10-19T05:51:31;2.42;;;1.85;;
47922;SDS011;33688;44.354;9.228;2023-10-19T05:53:58;1.80;;;1.50;;
47922;SDS011;33688;44.354;9.228;2023-10-19T05:56:32;2.30;;;1.48;;
47922;SDS011;33688;44.354;9.228;2023-10-19T05:58:59;1.40;;;1.30;;
47922;SDS011;33688;44.354;9.228;2023-10-19T06:01:26;1.50;;;1.33;;
47922;SDS011;33688;44.354;9.228;2023-10-19T06:03:53;3.13;;;1.95;;
47922;SDS011;33688;44.354;9.228;2023-10-19T06:06:19;1.55;;;1.40;;
47922;SDS011;33688;44.354;9.228;2023-10-19T06:08:47;1.58;;;1.48;;
47922;SDS011;33688;44.354;9.228;2023-10-19T06:11:12;1.55;;;1.33;;
47922;SDS011;33688;44.354;9.228;2023-10-19T06:13:38;1.50;;;1.40;;
47922;SDS011;33688;44.354;9.228;2023-10-19T06:16:04;1.48;;;1.35;;
47922;SDS011;33688;44.354;9.228;2023-10-19T06:18:30;1.98;;;1.58;;
47922;SDS011;33688;44.354;9.228;2023-10-19T06:20:57;1.80;;;1.60;;
47922;SDS011;33688;44.354;9.228;2023-10-19T06:23:22;1.85;;;1.35;;
47922;SDS011;33688;44.354;9.228;2023-10-19T06:25:48;1.63;;;1.27;;
47922;SDS011;33688;44.354;9.228;2023-10-19T06:28:16;2.05;;;1.67;;
47922;SDS011;33688;44.354;9.228;2023-10-19T06:30:42;1.20;;;1.10;;
47922;SDS011;33688;44.354;9.228;2023-10-19T06:33:08;1.67;;;1.45;;
47922;SDS011;33688;44.354;9.228;2023-10-19T06:35:34;1.40;;;1.30;;
47922;SDS011;33688;44.354;9.228;2023-10-19T06:38:02;1.52;;;1.33;;
47922;SDS011;33688;44.354;9.228;2023-10-19T06:40:29;1.88;;;1.48;;
47922;SDS011;33688;44.354;9.228;2023-10-19T06:42:57;4.93;;;1.90;;
47922;SDS011;33688;44.354;9.228;2023-10-19T06:45:24;3.70;;;1.60;;
47922;SDS011;33688;44.354;9.228;2023-10-19T06:47:57;4.95;;;1.75;;
47922;SDS011;33688;44.354;9.228;2023-10-19T06:50:26;10.18;;;1.88;;
47922;SDS011;33688;44.354;9.228;2023-10-19T06:52:53;4.78;;;1.85;;
47922;SDS011;33688;44.354;9.228;2023-10-19T06:55:22;7.68;;;1.70;;
47922;SDS011;33688;44.354;9.228;2023-10-19T06:57:49;7.55;;;1.55;;
47922;SDS011;33688;44.354;9.228;2023-10-19T07:00:18;2.58;;;1.60;;
47922;SDS011;33688;44.354;9.228;2023-10-19T07:02:50;10.95;;;1.90;;
47922;SDS011;33688;44.354;9.228;2023-10-19T07:05:19;5.25;;;1.80;;
47922;SDS011;33688;44.354;9.228;2023-10-19T07:07:55;5.57;;;2.15;;
47922;SDS011;33688;44.354;9.228;2023-10-19T07:10:22;10.27;;;2.13;;
47922;SDS011;33688;44.354;9.228;2023-10-19T07:12:52;6.90;;;2.08;;
47922;SDS011;33688;44.354;9.228;2023-10-19T07:15:22;11.27;;;2.10;;
47922;SDS011;33688;44.354;9.228;2023-10-19T07:17:50;9.60;;;2.03;;
47922;SDS011;33688;44.354;9.228;2023-10-19T07:20:20;7.13;;;2.60;;
47922;SDS011;33688;44.354;9.228;2023-10-19T07:23:04;10.05;;;2.20;;
47922;SDS011;33688;44.354;9.228;2023-10-19T07:25:52;5.47;;;2.00;;
47922;SDS011;33688;44.354;9.228;2023-10-19T07:28:19;6.85;;;2.17;;
47922;SDS011;33688;44.354;9.228;2023-10-19T07:30:47;10.57;;;2.55;;
47922;SDS011;33688;44.354;9.228;2023-10-19T07:33:15;12.02;;;2.80;;
47922;SDS011;33688;44.354;9.228;2023-10-19T07:35:44;14.43;;;2.97;;
47922;SDS011;33688;44.354;9.228;2023-10-19T07:38:18;9.18;;;2.97;;
47922;SDS011;33688;44.354;9.228;2023-10-19T07:40:47;6.50;;;2.75;;
47922;SDS011;33688;44.354;9.228;2023-10-19T07:43:14;11.27;;;3.45;;
47922;SDS011;33688;44.354;9.228;2023-10-19T07:45:40;8.10;;;3.30;;
47922;SDS011;33688;44.354;9.228;2023-10-19T07:48:08;11.63;;;3.42;;
47922;SDS011;33688;44.354;9.228;2023-10-19T07:50:37;8.85;;;3.20;;
47922;SDS011;33688;44.354;9.228;2023-10-19T07:53:07;8.35;;;3.00;;
47922;SDS011;33688;44.354;9.228;2023-10-19T07:55:34;7.78;;;3.03;;
47922;SDS011;33688;44.354;9.228;2023-10-19T07:58:01;12.07;;;3.53;;
47922;SDS011;33688;44.354;9.228;2023-10-19T08:00:28;12.75;;;3.75;;
47922;SDS011;33688;44.354;9.228;2023-10-19T08:02:59;7.30;;;3.38;;
47922;SDS011;33688;44.354;9.228;2023-10-19T08:05:25;12.35;;;4.78;;
47922;SDS011;33688;44.354;9.228;2023-10-19T08:07:51;11.70;;;3.35;;
47922;SDS011;33688;44.354;9.228;2023-10-19T08:10:18;9.57;;;3.33;;
47922;SDS011;33688;44.354;9.228;2023-10-19T08:12:45;15.98;;;3.70;;
47922;SDS011;33688;44.354;9.228;2023-10-19T08:15:14;7.57;;;3.67;;
47922;SDS011;33688;44.354;9.228;2023-10-19T08:17:43;11.80;;;3.67;;
47922;SDS011;33688;44.354;9.228;2023-10-19T08:20:13;14.18;;;4.35;;
47922;SDS011;33688;44.354;9.228;2023-10-19T08:22:53;8.18;;;3.17;;
47922;SDS011;33688;44.354;9.228;2023-10-19T08:25:23;9.75;;;3.58;;
47922;SDS011;33688;44.354;9.228;2023-10-19T08:27:49;11.95;;;3.20;;
47922;SDS011;33688;44.354;9.228;2023-10-19T08:30:17;10.15;;;3.72;;
47922;SDS011;33688;44.354;9.228;2023-10-19T08:32:44;5.95;;;2.95;;
47922;SDS011;33688;44.354;9.228;2023-10-19T08:35:14;11.43;;;3.13;;
47922;SDS011;33688;44.354;9.228;2023-10-19T08:37:41;8.48;;;3.33;;
47922;SDS011;33688;44.354;9.228;2023-10-19T08:40:11;6.93;;;3.42;;
47922;SDS011;33688;44.354;9.228;2023-10-19T08:42:43;9.30;;;3.90;;
47922;SDS011;33688;44.354;9.228;2023-10-19T08:45:11;6.97;;;3.50;;
47922;SDS011;33688;44.354;9.228;2023-10-19T08:47:58;11.05;;;3.50;;
47922;SDS011;33688;44.354;9.228;2023-10-19T08:50:26;21.15;;;3.38;;
47922;SDS011;33688;44.354;9.228;2023-10-19T08:52:56;6.32;;;2.83;;
47922;SDS011;33688;44.354;9.228;2023-10-19T08:55:24;4.97;;;3.03;;
47922;SDS011;33688;44.354;9.228;2023-10-19T08:57:50;6.95;;;3.38;;
47922;SDS011;33688;44.354;9.228;2023-10-19T09:00:17;6.10;;;3.50;;
47922;SDS011;33688;44.354;9.228;2023-10-19T09:02:47;8.68;;;3.38;;
47922;SDS011;33688;44.354;9.228;2023-10-19T09:05:14;8.48;;;3.78;;
47922;SDS011;33688;44.354;9.228;2023-10-19T09:07:52;6.40;;;3.13;;
47922;SDS011;33688;44.354;9.228;2023-10-19T09:10:25;4.82;;;2.80;;
47922;SDS011;33688;44.354;9.228;2023-10-19T09:13:01;7.82;;;3.42;;
47922;SDS011;33688;44.354;9.228;2023-10-19T09:15:31;6.70;;;3.58;;
47922;SDS011;33688;44.354;9.228;2023-10-19T09:20:45;6.07;;;3.15;;
47922;SDS011;33688;44.354;9.228;2023-10-19T09:23:23;6.00;;;2.65;;
47922;SDS011;33688;44.354;9.228;2023-10-19T09:25:56;7.55;;;3.35;;
47922;SDS011;33688;44.354;9.228;2023-10-19T09:28:23;8.18;;;3.17;;
47922;SDS011;33688;44.354;9.228;2023-10-19T09:30:50;7.72;;;3.35;;
47922;SDS011;33688;44.354;9.228;2023-10-19T09:33:18;6.85;;;3.10;;
47922;SDS011;33688;44.354;9.228;2023-10-19T09:35:47;7.90;;;3.65;;
47922;SDS011;33688;44.354;9.228;2023-10-19T09:38:17;8.32;;;3.20;;
47922;SDS011;33688;44.354;9.228;2023-10-19T09:40:53;6.80;;;3.38;;
47922;SDS011;33688;44.354;9.228;2023-10-19T09:46:26;9.55;;;3.72;;
47922;SDS011;33688;44.354;9.228;2023-10-19T09:48:58;6.30;;;2.92;;
47922;SDS011;33688;44.354;9.228;2023-10-19T09:51:26;32.75;;;3.85;;
47922;SDS011;33688;44.354;9.228;2023-10-19T09:54:12;5.78;;;3.17;;
47922;SDS011;33688;44.354;9.228;2023-10-19T09:56:49;10.70;;;3.47;;
47922;SDS011;33688;44.354;9.228;2023-10-19T09:59:29;8.43;;;3.20;;
47922;SDS011;33688;44.354;9.228;2023-10-19T10:04:31;6.50;;;2.72;;
47922;SDS011;33688;44.354;9.228;2023-10-19T10:07:00;6.68;;;2.78;;
47922;SDS011;33688;44.354;9.228;2023-10-19T10:09:26;6.20;;;3.05;;
47922;SDS011;33688;44.354;9.228;2023-10-19T10:11:52;5.90;;;2.55;;
47922;SDS011;33688;44.354;9.228;2023-10-19T10:14:24;6.45;;;2.83;;
47922;SDS011;33688;44.354;9.228;2023-10-19T10:17:11;5.00;;;2.85;;
47922;SDS011;33688;44.354;9.228;2023-10-19T10:19:44;10.65;;;3.10;;
47922;SDS011;33688;44.354;9.228;2023-10-19T10:22:10;6.40;;;3.20;;
47922;SDS011;33688;44.354;9.228;2023-10-19T10:24:43;9.02;;;2.63;;
47922;SDS011;33688;44.354;9.228;2023-10-19T10:27:09;7.05;;;2.60;;
47922;SDS011;33688;44.354;9.228;2023-10-19T10:29:58;6.72;;;2.72;;
47922;SDS011;33688;44.354;9.228;2023-10-19T10:38:08;8.50;;;3.38;;
47922;SDS011;33688;44.354;9.228;2023-10-19T10:40:44;7.00;;;2.45;;
47922;SDS011;33688;44.354;9.228;2023-10-19T10:43:12;6.72;;;2.58;;
47922;SDS011;33688;44.354;9.228;2023-10-19T10:45:40;5.18;;;3.10;;
47922;SDS011;33688;44.354;9.228;2023-10-19T10:48:16;8.68;;;3.53;;
47922;SDS011;33688;44.354;9.228;2023-10-19T10:50:44;7.10;;;2.80;;
47922;SDS011;33688;44.354;9.228;2023-10-19T10:53:12;5.57;;;3.58;;
47922;SDS011;33688;44.354;9.228;2023-10-19T10:55:42;6.72;;;2.92;;
47922;SDS011;33688;44.354;9.228;2023-10-19T10:58:08;6.22;;;2.78;;
47922;SDS011;33688;44.354;9.228;2023-10-19T11:00:41;4.15;;;2.35;;
47922;SDS011;33688;44.354;9.228;2023-10-19T11:03:08;5.57;;;2.85;;
47922;SDS011;33688;44.354;9.228;2023-10-19T11:05:37;4.63;;;2.90;;
47922;SDS011;33688;44.354;9.228;2023-10-19T11:08:07;6.35;;;2.67;;
47922;SDS011;33688;44.354;9.228;2023-10-19T11:10:41;5.72;;;2.75;;
47922;SDS011;33688;44.354;9.228;2023-10-19T11:13:12;2.40;;;1.95;;
47922;SDS011;33688;44.354;9.228;2023-10-19T11:15:47;5.20;;;2.45;;
47922;SDS011;33688;44.354;9.228;2023-10-19T11:18:28;3.67;;;2.22;;
47922;SDS011;33688;44.354;9.228;2023-10-19T11:20:58;4.85;;;2.53;;
47922;SDS011;33688;44.354;9.228;2023-10-19T11:26:16;6.20;;;2.80;;
47922;SDS011;33688;44.354;9.228;2023-10-19T11:28:56;7.88;;;2.55;;
47922;SDS011;33688;44.354;9.228;2023-10-19T11:31:26;6.72;;;2.47;;
47922;SDS011;33688;44.354;9.228;2023-10-19T11:33:54;4.68;;;2.38;;
47922;SDS011;33688;44.354;9.228;2023-10-19T11:36:21;3.58;;;2.00;;
47922;SDS011;33688;44.354;9.228;2023-10-19T11:38:49;4.13;;;2.00;;
47922;SDS011;33688;44.354;9.228;2023-10-19T11:41:19;6.10;;;2.45;;
47922;SDS011;33688;44.354;9.228;2023-10-19T11:43:46;4.85;;;2.78;;
47922;SDS011;33688;44.354;9.228;2023-10-19T11:46:13;7.85;;;2.65;;
47922;SDS011;33688;44.354;9.228;2023-10-19T11:48:40;6.93;;;2.30;;
47922;SDS011;33688;44.354;9.228;2023-10-19T11:51:08;3.53;;;2.58;;
47922;SDS011;33688;44.354;9.228;2023-10-19T11:53:36;4.22;;;2.42;;
47922;SDS011;33688;44.354;9.228;2023-10-19T11:56:07;4.40;;;2.10;;
47922;SDS011;33688;44.354;9.228;2023-10-19T11:58:35;6.68;;;2.13;;
47922;SDS011;33688;44.354;9.228;2023-10-19T12:01:03;3.60;;;2.30;;
47922;SDS011;33688;44.354;9.228;2023-10-19T12:03:34;4.28;;;2.17;;
47922;SDS011;33688;44.354;9.228;2023-10-19T12:06:04;3.80;;;2.20;;
47922;SDS011;33688;44.354;9.228;2023-10-19T12:08:34;6.00;;;2.05;;
47922;SDS011;33688;44.354;9.228;2023-10-19T12:11:04;4.45;;;2.35;;
47922;SDS011;33688;44.354;9.228;2023-10-19T12:13:40;3.72;;;2.10;;
47922;SDS011;33688;44.354;9.228;2023-10-19T12:16:13;11.15;;;2.40;;
47922;SDS011;33688;44.354;9.228;2023-10-19T12:18:46;4.10;;;2.30;;
47922;SDS011;33688;44.354;9.228;2023-10-19T12:21:15;4.13;;;2.10;;
47922;SDS011;33688;44.354;9.228;2023-10-19T12:23:43;5.05;;;2.40;;
47922;SDS011;33688;44.354;9.228;2023-10-19T12:26:10;9.20;;;2.30;;
47922;SDS011;33688;44.354;9.228;2023-10-19T12:28:40;7.38;;;2.38;;
47922;SDS011;33688;44.354;9.228;2023-10-19T12:31:06;3.65;;;2.53;;
47922;SDS011;33688;44.354;9.228;2023-10-19T12:33:37;6.55;;;2.40;;
47922;SDS011;33688;44.354;9.228;2023-10-19T12:36:05;3.95;;;2.20;;
47922;SDS011;33688;44.354;9.228;2023-10-19T12:38:50;3.13;;;2.15;;
47922;SDS011;33688;44.354;9.228;2023-10-19T12:41:16;6.22;;;2.95;;
47922;SDS011;33688;44.354;9.228;2023-10-19T12:43:44;3.38;;;2.28;;
47922;SDS011;33688;44.354;9.228;2023-10-19T12:46:11;4.57;;;2.42;;
47922;SDS011;33688;44.354;9.228;2023-10-19T12:48:39;8.70;;;2.05;;
47922;SDS011;33688;44.354;9.228;2023-10-19T12:51:05;4.03;;;2.58;;
47922;SDS011;33688;44.354;9.228;2023-10-19T12:53:37;3.40;;;2.15;;
47922;SDS011;33688;44.354;9.228;2023-10-19T12:56:07;6.60;;;2.80;;
47922;SDS011;33688;44.354;9.228;2023-10-19T12:58:37;4.10;;;2.22;;
47922;SDS011;33688;44.354;9.228;2023-10-19T13:01:04;4.72;;;2.58;;
47922;SDS011;33688;44.354;9.228;2023-10-19T13:06:16;3.95;;;2.38;;
47922;SDS011;33688;44.354;9.228;2023-10-19T13:08:42;4.15;;;2.22;;
47922;SDS011;33688;44.354;9.228;2023-10-19T13:11:08;4.30;;;2.45;;
47922;SDS011;33688;44.354;9.228;2023-10-19T13:13:40;5.22;;;2.33;;
47922;SDS011;33688;44.354;9.228;2023-10-19T13:16:06;4.55;;;2.33;;
47922;SDS011;33688;44.354;9.228;2023-10-19T13:18:35;5.43;;;2.63;;
47922;SDS011;33688;44.354;9.228;2023-10-19T13:21:01;7.43;;;2.75;;
47922;SDS011;33688;44.354;9.228;2023-10-19T13:23:30;3.72;;;2.13;;
47922;SDS011;33688;44.354;9.228;2023-10-19T13:26:02;4.47;;;2.20;;
47922;SDS011;33688;44.354;9.228;2023-10-19T13:28:33;5.20;;;2.72;;
47922;SDS011;33688;44.354;9.228;2023-10-19T13:31:03;5.53;;;2.03;;
47922;SDS011;33688;44.354;9.228;2023-10-19T13:33:29;8.07;;;2.40;;
47922;SDS011;33688;44.354;9.228;2023-10-19T13:35:55;6.95;;;2.25;;
47922;SDS011;33688;44.354;9.228;2023-10-19T13:38:21;10.10;;;2.42;;
47922;SDS011;33688;44.354;9.228;2023-10-19T13:40:47;9.23;;;2.95;;
47922;SDS011;33688;44.354;9.228;2023-10-19T13:43:15;3.35;;;2.38;;
47922;SDS011;33688;44.354;9.228;2023-10-19T13:45:46;3.97;;;2.25;;
47922;SDS011;33688;44.354;9.228;2023-10-19T13:48:15;4.60;;;2.25;;
47922;SDS011;33688;44.354;9.228;2023-10-19T13:50:42;4.68;;;2.80;;
47922;SDS011;33688;44.354;9.228;2023-10-19T13:53:13;5.47;;;2.13;;
47922;SDS011;33688;44.354;9.228;2023-10-19T13:55:40;6.45;;;2.55;;
47922;SDS011;33688;44.354;9.228;2023-10-19T13:58:08;3.97;;;2.50;;
47922;SDS011;33688;44.354;9.228;2023-10-19T14:00:36;5.53;;;2.38;;
47922;SDS011;33688;44.354;9.228;2023-10-19T14:03:06;5.38;;;1.88;;
47922;SDS011;33688;44.354;9.228;2023-10-19T14:05:51;5.15;;;2.90;;
47922;SDS011;33688;44.354;9.228;2023-10-19T14:08:21;6.18;;;2.50;;
47922;SDS011;33688;44.354;9.228;2023-10-19T14:10:48;5.93;;;2.08;;
47922;SDS011;33688;44.354;9.228;2023-10-19T14:13:14;6.63;;;2.03;;
47922;SDS011;33688;44.354;9.228;2023-10-19T14:15:40;7.88;;;2.05;;
47922;SDS011;33688;44.354;9.228;2023-10-19T14:18:07;3.80;;;2.20;;
47922;SDS011;33688;44.354;9.228;2023-10-19T14:20:34;8.75;;;2.08;;
47922;SDS011;33688;44.354;9.228;2023-10-19T14:25:45;3.85;;;2.25;;
47922;SDS011;33688;44.354;9.228;2023-10-19T14:28:12;4.43;;;2.58;;
47922;SDS011;33688;44.354;9.228;2023-10-19T14:30:38;3.38;;;2.13;;
47922;SDS011;33688;44.354;9.228;2023-10-19T14:33:05;3.67;;;2.00;;
47922;SDS011;33688;44.354;9.228;2023-10-19T14:35:36;2.67;;;1.77;;
47922;SDS011;33688;44.354;9.228;2023-10-19T14:38:07;4.85;;;2.50;;
47922;SDS011;33688;44.354;9.228;2023-10-19T14:40:34;3.50;;;1.90;;
47922;SDS011;33688;44.354;9.228;2023-10-19T14:43:01;3.03;;;1.92;;
47922;SDS011;33688;44.354;9.228;2023-10-19T14:45:29;6.45;;;2.00;;
47922;SDS011;33688;44.354;9.228;2023-10-19T14:47:56;4.25;;;2.40;;
47922;SDS011;33688;44.354;9.228;2023-10-19T14:50:23;9.40;;;2.72;;
47922;SDS011;33688;44.354;9.228;2023-10-19T14:52:54;7.10;;;2.30;;
47922;SDS011;33688;44.354;9.228;2023-10-19T14:55:21;3.90;;;2.33;;
47922;SDS011;33688;44.354;9.228;2023-10-19T14:57:53;8.23;;;2.03;;
47922;SDS011;33688;44.354;9.228;2023-10-19T15:00:22;4.40;;;2.78;;
47922;SDS011;33688;44.354;9.228;2023-10-19T15:03:16;6.95;;;1.90;;
47922;SDS011;33688;44.354;9.228;2023-10-19T15:05:44;2.88;;;1.85;;
47922;SDS011;33688;44.354;9.228;2023-10-19T15:08:10;4.05;;;1.92;;
47922;SDS011;33688;44.354;9.228;2023-10-19T15:10:39;7.63;;;2.30;;
47922;SDS011;33688;44.354;9.228;2023-10-19T15:13:09;5.80;;;2.40;;
47922;SDS011;33688;44.354;9.228;2023-10-19T15:15:35;7.45;;;2.67;;
47922;SDS011;33688;44.354;9.228;2023-10-19T15:18:01;7.05;;;2.03;;
47922;SDS011;33688;44.354;9.228;2023-10-19T15:20:29;4.32;;;1.85;;
47922;SDS011;33688;44.354;9.228;2023-10-19T15:22:56;3.55;;;1.98;;
47922;SDS011;33688;44.354;9.228;2023-10-19T15:25:23;9.70;;;2.00;;